Hyannis, MA

11:03 AM EDT on September 21, 2014 (GMT -0400)
Hyannis Woods | Change Station
CLOSE
Current Station
Personal Weather Station
Location: Barnstable, MA
Elevation: 66 ft
Nearby Weather Stations

Elev 66 ft 41.66 °N, 70.31 °W | Updated 60 seconds ago

Partly Cloudy
Partly Cloudy
71.8 °F
Feels Like 70 °F
N
4.7
Wind Variable Wind from NNE

Today
High -- | Low -- °F
--% Chance of Precip.
Yesterday
High -- | Low -- °F
Precip. -- in
6:27 AM 6:40 PM
Waning Crescent, 6% visible
Pressure 29.92 in
Visibility 10.0 miles
Clouds Mostly Cloudy 6000 ft
Heat Index 70 °F
Dew Point 67 °F
Humidity 86%
Rainfall 0.00 in
Snow Depth Not available.
UV 3 out of 12
Pollen 1.60 out of 12
Air Quality Not available.
Flu Activity Not available.
METAR KHYA 211456Z 15004KT 10SM BKN060 23/19 A2992 RMK AO2 SLP131 T02280194 58015

More Conditions Fewer Conditions

Pressure 29.92 in
Visibility 10.0 miles
Clouds Mostly Cloudy 6000 ft
Heat Index 70 °F
Dew Point 67 °F
Humidity 86%
Rainfall 0.00 in
Snow Depth Not available.
UV 3 out of 12
Pollen 1.60 out of 12
Air Quality Not available.
Flu Activity Not available.
METAR KHYA 211456Z 15004KT 10SM BKN060 23/19 A2992 RMK AO2 SLP131 T02280194 58015

More Conditions Fewer Conditions

10-Day Weather Forecast

Almanac

Astronomy

Sep. 21, 2014 Rise Set
Actual Time 6:27 AM EDT 6:40 PM EDT
Civil Twilight 5:59 AM EDT 7:07 PM EDT
Nautical Twilight 5:27 AM EDT 7:40 PM EDT
Astronomical Twilight 4:53 AM EDT 8:13 PM EDT
Moon 3:56 AM EDT 5:15 PM EDT
Length of Visible Light 13h 08m
Length of Day
12h 12m
Tomorrow will be 2m 45s shorter.
Waning Crescent, 6% of the Moon is Illuminated
Today
Waning Crescent
Sep 24
New
Oct 1
First Quarter
Oct 8
Full
Oct 15
Last Quarter

Today's Extremes

State Highs State Lows

Community

WunderPhotos

Upload Photos

1,755,166 photos uploaded!

Nearby

Air Quality

  Air Quality AQ Index Pollutant
Yesterday Good
OZONE
Sunday Good
PM2.5
Sunday Good
OZONE

Snow Depth

Station Depth Elevation
No new snow has been reported.

Earthquake Activity

City Distance Mag. Time & Date
No recent earthquake activity has been reported nearby.
Minimum magnitude displayed is 2.5.

Coastal Water Temperatures

Place Temperature
Nantucket Island, MA 66.9 °F
Woods Hole, MA 69.1 °F
Fall River, MA 69.1 °F
Boston, MA 62.1 °F

Nearby Weather Stations